AirNav   Air Wisconsin Up To $57,000 Bonus
 
 904 users online  

9MI1 Custer Main Heliport
Battle Creek, Michigan, USA

GOING TO BATTLE CREEK?


FAA INFORMATION EFFECTIVE 07 NOVEMBER 2019

Location

FAA Identifier: 9MI1
Lat/Long: 42-19-54.0000N 085-17-48.0000W
42-19.900000N 085-17.800000W
42.3316667,-85.2966667
(estimated)
Elevation: 883 ft. / 269 m (estimated)
Variation: 04W (1990)
From city: 4 miles W of BATTLE CREEK, MI
Time zone: UTC -5 (UTC -4 during Daylight Saving Time)
Zip code: 49015

Heliport Operations

Heliport use: Private use. Permission required prior to landing
Activation date: 10/1992
Control tower: no
ARTCC: CHICAGO CENTER
FSS: LANSING FLIGHT SERVICE STATION
Attendance: CONTINUOUS
Wind indicator: yes
Segmented circle: no

Heliport Communications

WX ASOS at BTL (2.6 nm SE): PHONE 269-964-0283
WX ASOS at AZO (13 nm SW): 127.25 (269-459-3391)
WX AWOS-3 at RMY (16 nm E): 120.025 (269-781-9070)

Nearby radio navigation aids

VOR radial/distance  VOR name  Freq  Var
AZOr064/12.7KALAMAZOO VOR/DME109.0001W
LFDr309/28.6LITCHFIELD VOR/DME111.2005W
VIOr166/28.7VICTORY VOR/DME115.9504W
PMMr103/36.7PULLMAN VOR/DME112.1000E
JXNr282/37.4JACKSON VOR/DME109.6005W
ELXr073/38.4KEELER VOR/DME116.6000E

 
NDB name  Hdg/Dist  Freq  Var  ID
BATOL254/5.327204WBT -... -
STURGIS015/31.738204WIRS .. .-. ...

Heliport Services

Runway Information

Helipad H1

Dimensions: 22 x 22 ft. / 7 x 7 m
Surface: concrete
Traffic pattern: leftleft

Heliport Ownership and Management from official FAA records

Ownership: Publicly-owned
Owner: DEPT OF DEFENSE
2501 26TH ST
AUGUSTA, MI 49012
Phone 616-731-4384
Manager: MAJOR PATRICK WILK
2501 26TH ST
AUGUSTA, MI 49012
Phone (269) 282-7555
MICHIGAN ARMY NATL GUARD.

Additional Remarks

A52-H1 20 FT WINDSOCK 75 FT W; 30 FT PLINES 600 FT E.
FOR CD CTC GREAT LAKES APCH AT 269-459-3345, WHEN APCH CLSD CTC CHICAGO ARTCC AT 630-906-8921.

Instrument Procedures

There are no published instrument procedures at 9MI1.

Some nearby airports with instrument procedures:

KBTL - W K Kellogg Airport (3 nm SE)
KAZO - Kalamazoo/Battle Creek International Airport (13 nm SW)
KRMY - Brooks Field Airport (16 nm E)
9D9 - Hastings Airport (20 nm N)
KFPK - Fitch H Beach Airport (26 nm NE)
 
Loc | Ops | Rwys | IFR | FBO | Links
Com | Nav | Svcs | Stats | Notes
Area around 9MI1 (Custer Main Heliport)
 
Road maps at: MapQuest Bing Google
 
Aerial photo
No photo
 
Sectional chart

 
Airport distance calculator
Flying to Custer Main Heliport? Find the distance to fly.

From to 9MI1

Sunrise and sunset
Times for 19-Nov-2019
 Local
(UTC-5)
 Zulu
(UTC)
Morning civil twilight07:0712:07
Sunrise07:3812:38
Sunset17:1522:15
Evening civil twilight17:4622:46

Current date and time
Zulu (UTC)  20-Nov-2019 01:59:52
Local (UTC-5)  19-Nov-2019 20:59:52
 
METAR
KBTL 
3nm E 
200153Z 00000KT 10SM BKN022 01/M01 A2994 RMK AO2 SLP146 T00061011
KAZO 
13nm SW 
200153Z 00000KT 10SM CLR 02/M01 A2995 RMK AO2 SLP149 T00171011
KRMY 
16nm E 
200135Z AUTO 00000KT 10SM CLR 01/M01 A2992 RMK AO2 T00081013
TAF
KBTL 
3nm E 
191740Z 1918/2018 23007KT P6SM BKN025 FM200700 VRB03KT P6SM OVC015
KAZO 
13nm SW 
191740Z 1918/2018 21005KT P6SM OVC025 FM200700 VRB04KT P6SM OVC015
NOTAMs
Click for the latest NOTAMs
NOTAMs are issued by the DoD/FAA and will open in a separate window not controlled by AirNav.

 

 
 

Would you like to see your business listed on this page?

 If your business provides an interesting product or service to pilots, flight crews, aircraft, or users of the Custer Main Heliport, you should consider listing it here.  To start the listing process, click on the button below
 
Add a business
 

Other Pages about Custer Main Heliport

Update a link
 
Copyright © AirNav, LLC. All rights reserved. Privacy Policy  Contact